createdAt,value
2023-05-10T00:02:09.671Z,101395.05
2023-05-10T00:04:36.631Z,101394.35
2023-05-10T00:07:03.444Z,101393.47
2023-05-10T00:09:30.418Z,101396.43
2023-05-10T00:11:59.531Z,101393.58
2023-05-10T00:14:26.373Z,101392.52
2023-05-10T00:16:53.468Z,101392.75
2023-05-10T00:19:20.657Z,101392.80
2023-05-10T00:21:47.637Z,101392.79
2023-05-10T00:24:14.521Z,101393.85
2023-05-10T00:26:43.344Z,101391.95
2023-05-10T00:29:10.505Z,101395.69
2023-05-10T00:31:37.460Z,101392.61
2023-05-10T00:34:04.501Z,101391.69
2023-05-10T00:36:32.286Z,101393.85
2023-05-10T00:38:59.641Z,101394.60
2023-05-10T00:41:26.546Z,101392.39
2023-05-10T00:43:54.640Z,101389.50
2023-05-10T00:46:21.637Z,101388.91
2023-05-10T00:48:48.725Z,101389.19
2023-05-10T00:51:15.618Z,101385.55
2023-05-10T00:53:42.612Z,101389.22
2023-05-10T00:56:09.660Z,101386.54
2023-05-10T00:58:36.720Z,101383.80
2023-05-10T01:01:03.797Z,101384.98
2023-05-10T01:03:30.774Z,101389.11
2023-05-10T01:05:57.851Z,101390.05
2023-05-10T01:08:25.615Z,101388.86
2023-05-10T01:10:53.629Z,101388.43
2023-05-10T01:13:32.631Z,101390.38
2023-05-10T01:16:00.974Z,101390.29
2023-05-10T01:18:27.963Z,101389.06
2023-05-10T01:21:20.296Z,101390.99
2023-05-10T01:24:08.527Z,101389.30
2023-05-10T01:26:36.406Z,101389.67
2023-05-10T01:29:13.392Z,101390.86
2023-05-10T01:32:21.441Z,101390.03
2023-05-10T01:34:54.476Z,101392.46
2023-05-10T01:37:23.043Z,101395.00
2023-05-10T01:39:56.564Z,101394.71
2023-05-10T01:42:29.648Z,101392.27
2023-05-10T01:45:03.572Z,101390.67
2023-05-10T01:47:35.643Z,101390.17
2023-05-10T01:50:04.433Z,101387.02
2023-05-10T01:52:39.142Z,101391.73
2023-05-10T01:55:07.633Z,101387.49
2023-05-10T01:57:37.261Z,101386.60
2023-05-10T02:00:05.620Z,101385.33
2023-05-10T02:02:43.388Z,101385.17
2023-05-10T02:05:11.958Z,101380.88
2023-05-10T02:07:38.847Z,101383.40
2023-05-10T02:10:08.901Z,101384.00
2023-05-10T02:12:40.919Z,101384.39
2023-05-10T02:15:08.577Z,101384.81
2023-05-10T02:17:38.687Z,101387.20
2023-05-10T02:20:09.121Z,101384.84
2023-05-10T02:22:36.604Z,101383.80
2023-05-10T02:25:03.631Z,101387.91
2023-05-10T02:27:30.628Z,101385.58
2023-05-10T02:29:57.399Z,101384.27
2023-05-10T02:32:25.614Z,101386.52
2023-05-10T02:34:53.106Z,101384.73
2023-05-10T02:37:20.954Z,101384.89
2023-05-10T02:39:51.449Z,101384.29
2023-05-10T02:42:19.767Z,101384.54
2023-05-10T02:44:47.496Z,101385.63
2023-05-10T02:47:15.855Z,101386.00
2023-05-10T02:49:42.773Z,101382.24
2023-05-10T02:52:10.505Z,101386.61
2023-05-10T02:54:56.792Z,101389.11
2023-05-10T02:57:27.819Z,101385.02
2023-05-10T02:59:54.767Z,101388.00
2023-05-10T03:02:21.739Z,101388.56
2023-05-10T03:04:48.634Z,101387.80
2023-05-10T03:07:15.608Z,101392.26
2023-05-10T03:09:42.484Z,101392.93
2023-05-10T03:12:33.786Z,101391.48
2023-05-10T03:15:07.480Z,101391.60
2023-05-10T03:17:42.605Z,101391.16
2023-05-10T03:20:12.966Z,101386.88
2023-05-10T03:22:44.193Z,101389.43
2023-05-10T03:25:12.144Z,101389.72
2023-05-10T03:27:44.208Z,101389.20
2023-05-10T03:30:12.853Z,101394.81
2023-05-10T03:32:39.846Z,101391.46
2023-05-10T03:35:10.687Z,101390.94
2023-05-10T03:37:37.791Z,101393.72
2023-05-10T03:40:05.530Z,101395.19
2023-05-10T03:42:33.466Z,101396.60
2023-05-10T03:45:00.497Z,101395.54
2023-05-10T03:47:27.317Z,101397.21
2023-05-10T03:49:54.308Z,101396.84
2023-05-10T03:52:21.480Z,101398.92
2023-05-10T03:54:48.542Z,101397.98
2023-05-10T03:57:15.767Z,101398.59
2023-05-10T03:59:42.702Z,101401.08
2023-05-10T04:02:09.673Z,101400.58
2023-05-10T04:04:37.416Z,101402.78
2023-05-10T04:07:04.577Z,101399.19
2023-05-10T04:09:31.507Z,101400.64
2023-05-10T04:11:59.945Z,101398.23
2023-05-10T04:14:26.951Z,101398.29
2023-05-10T04:16:53.875Z,101396.78
2023-05-10T04:19:21.269Z,101399.73
2023-05-10T04:21:48.138Z,101400.55
2023-05-10T04:24:14.968Z,101395.15
2023-05-10T04:26:42.080Z,101396.54
2023-05-10T04:29:08.882Z,101396.58
2023-05-10T04:31:37.411Z,101398.64
2023-05-10T04:34:04.330Z,101400.40
2023-05-10T04:36:31.193Z,101400.03
2023-05-10T04:38:58.133Z,101400.83
2023-05-10T04:41:26.396Z,101401.38
2023-05-10T04:43:53.252Z,101399.30
2023-05-10T04:46:20.159Z,101400.79
2023-05-10T04:48:47.137Z,101398.95
2023-05-10T04:51:14.199Z,101396.98
2023-05-10T04:53:42.967Z,101398.15
2023-05-10T04:56:11.725Z,101399.80
2023-05-10T04:58:38.602Z,101399.22
2023-05-10T05:01:12.157Z,101397.78
2023-05-10T05:03:39.339Z,101398.08
2023-05-10T05:06:06.559Z,101396.98
2023-05-10T05:08:33.380Z,101401.02
2023-05-10T05:11:00.598Z,101403.23
2023-05-10T05:13:27.782Z,101400.17
2023-05-10T05:15:54.764Z,101402.83
2023-05-10T05:18:21.681Z,101402.00
2023-05-10T05:20:48.499Z,101402.56
2023-05-10T05:23:15.398Z,101402.48
2023-05-10T05:25:43.203Z,101405.70
2023-05-10T05:28:10.061Z,101401.20
2023-05-10T05:30:36.988Z,101395.96
2023-05-10T05:33:04.181Z,101398.38
2023-05-10T05:35:31.234Z,101399.91
2023-05-10T05:37:58.432Z,101399.08
2023-05-10T05:40:25.480Z,101402.11
2023-05-10T05:42:52.431Z,101402.00
2023-05-10T05:45:19.500Z,101400.77
2023-05-10T05:47:46.681Z,101400.64
2023-05-10T05:50:13.750Z,101395.88
2023-05-10T05:52:40.630Z,101397.72
2023-05-10T05:55:08.090Z,101398.81
2023-05-10T05:57:34.910Z,101399.07
2023-05-10T06:00:01.732Z,101399.06
2023-05-10T06:02:28.613Z,101395.07
2023-05-10T06:04:55.661Z,101392.18
2023-05-10T06:07:22.723Z,101393.06
2023-05-10T06:09:49.536Z,101394.92
2023-05-10T06:12:16.415Z,101392.85
2023-05-10T06:14:43.335Z,101393.46
2023-05-10T06:17:10.347Z,101395.57
2023-05-10T06:19:37.862Z,101391.68
2023-05-10T06:22:04.711Z,101391.79
2023-05-10T06:24:31.631Z,101387.75
2023-05-10T06:27:01.129Z,101386.61
2023-05-10T06:29:27.960Z,101387.72
2023-05-10T06:31:55.311Z,101382.12
2023-05-10T06:34:22.136Z,101383.28
2023-05-10T06:36:48.932Z,101385.04
2023-05-10T06:39:16.072Z,101381.44
2023-05-10T06:41:43.121Z,101380.11
2023-05-10T06:44:10.478Z,101380.68
2023-05-10T06:46:37.717Z,101381.89
2023-05-10T06:49:05.652Z,101379.02
2023-05-10T06:51:32.536Z,101383.73
2023-05-10T06:53:59.421Z,101384.57
2023-05-10T06:56:26.274Z,101383.93
2023-05-10T06:58:53.125Z,101380.12
2023-05-10T07:01:20.235Z,101380.23
2023-05-10T07:03:47.258Z,101380.00
2023-05-10T07:06:29.495Z,101376.20
2023-05-10T07:09:00.563Z,101376.55
2023-05-10T07:11:27.975Z,101380.70
2023-05-10T07:13:54.915Z,101378.98
2023-05-10T07:16:22.863Z,101380.29
2023-05-10T07:18:51.478Z,101383.70
2023-05-10T07:21:18.558Z,101386.61
2023-05-10T07:23:45.599Z,101387.66
2023-05-10T07:26:12.756Z,101386.65
2023-05-10T07:28:40.183Z,101391.30
2023-05-10T07:31:07.279Z,101388.53
2023-05-10T07:33:34.298Z,101385.31
2023-05-10T07:36:01.529Z,101385.02
2023-05-10T07:38:28.551Z,101389.09
2023-05-10T07:40:55.514Z,101384.44
2023-05-10T07:43:22.359Z,101378.91
2023-05-10T07:45:49.635Z,101377.35
2023-05-10T07:48:16.614Z,101375.89
2023-05-10T07:50:43.436Z,101373.88
2023-05-10T07:53:10.656Z,101373.67
2023-05-10T07:55:37.518Z,101372.68
2023-05-10T07:58:04.606Z,101370.80
2023-05-10T08:00:31.810Z,101367.99
2023-05-10T08:02:58.851Z,101365.95
2023-05-10T08:05:25.995Z,101365.61
2023-05-10T08:07:52.835Z,101367.10
2023-05-10T08:10:19.888Z,101364.46
2023-05-10T08:12:46.835Z,101362.39
2023-05-10T08:15:13.797Z,101363.88
2023-05-10T08:17:40.884Z,101367.52
2023-05-10T08:20:09.198Z,101369.74
2023-05-10T08:22:36.161Z,101363.70
2023-05-10T08:25:03.044Z,101356.77
2023-05-10T08:27:29.934Z,101357.35
2023-05-10T08:29:56.883Z,101360.37
2023-05-10T08:32:23.754Z,101358.48
2023-05-10T08:34:50.569Z,101360.86
2023-05-10T08:37:18.027Z,101359.92
2023-05-10T08:39:44.890Z,101361.82
2023-05-10T08:42:11.822Z,101364.23
2023-05-10T08:44:39.122Z,101362.30
2023-05-10T08:47:07.897Z,101360.42
2023-05-10T08:49:35.156Z,101358.95
2023-05-10T08:52:05.138Z,101362.70
2023-05-10T08:54:35.561Z,101360.98
2023-05-10T08:57:02.660Z,101357.90
2023-05-10T09:00:38.848Z,101352.05
2023-05-10T09:03:05.983Z,101353.80
2023-05-10T09:05:33.183Z,101353.37
2023-05-10T09:08:01.707Z,101354.16
2023-05-10T09:10:29.224Z,101352.48
2023-05-10T09:12:59.198Z,101350.00
2023-05-10T09:15:26.628Z,101355.68
2023-05-10T09:17:53.586Z,101354.55
2023-05-10T09:20:20.729Z,101354.66
2023-05-10T09:22:47.663Z,101356.55
2023-05-10T09:25:15.765Z,101358.37
2023-05-10T09:27:46.336Z,101359.39
2023-05-10T09:30:26.799Z,101357.55
2023-05-10T09:32:53.986Z,101357.85
2023-05-10T09:35:22.558Z,101355.87
2023-05-10T09:37:50.789Z,101351.60
2023-05-10T09:40:19.012Z,101349.06
2023-05-10T09:42:59.561Z,101348.63
2023-05-10T09:45:30.599Z,101344.65
2023-05-10T09:47:57.755Z,101343.58
2023-05-10T09:50:24.895Z,101340.65
2023-05-10T09:52:54.130Z,101339.28
2023-05-10T09:55:25.695Z,101336.27
2023-05-10T09:58:02.329Z,101338.30
2023-05-10T10:00:29.415Z,101337.02
2023-05-10T10:03:00.367Z,101332.48
2023-05-10T10:05:31.447Z,101332.00
2023-05-10T10:07:58.690Z,101331.30
2023-05-10T10:10:26.478Z,101329.88
2023-05-10T10:12:53.820Z,101328.59
2023-05-10T10:15:22.185Z,101329.73
2023-05-10T10:17:50.336Z,101329.96
2023-05-10T10:20:18.148Z,101325.93
2023-05-10T10:22:45.561Z,101329.91
2023-05-10T10:25:16.924Z,101329.45
2023-05-10T10:27:56.698Z,101326.83
2023-05-10T10:30:47.201Z,101324.27
2023-05-10T10:33:42.310Z,101321.25
2023-05-10T10:36:09.236Z,101319.88
2023-05-10T10:39:04.018Z,101315.41
2023-05-10T10:41:39.288Z,101313.67
2023-05-10T10:44:32.138Z,101314.08
2023-05-10T10:47:19.636Z,101307.84
2023-05-10T10:49:59.008Z,101306.15
2023-05-10T10:52:31.046Z,101304.48
2023-05-10T10:55:06.303Z,101302.48
2023-05-10T10:57:34.627Z,101300.52
2023-05-10T11:00:21.807Z,101304.38
2023-05-10T11:02:50.476Z,101298.45
2023-05-10T11:05:27.077Z,101295.70
2023-05-10T11:07:58.044Z,101293.61
2023-05-10T11:10:25.722Z,101293.66
2023-05-10T11:13:12.963Z,101292.84
2023-05-10T11:15:40.468Z,101287.08
2023-05-10T11:18:33.684Z,101285.98
2023-05-10T11:21:04.347Z,101288.67
2023-05-10T11:23:41.484Z,101289.01
2023-05-10T11:26:10.648Z,101287.17
2023-05-10T11:28:47.980Z,101288.45
2023-05-10T11:31:16.084Z,101289.20
2023-05-10T11:33:51.315Z,101288.77
2023-05-10T11:36:19.834Z,101287.59
2023-05-10T11:38:47.118Z,101287.27
2023-05-10T11:41:14.157Z,101284.42
2023-05-10T11:43:41.379Z,101284.78
2023-05-10T11:46:14.603Z,101286.30
2023-05-10T11:48:42.040Z,101289.01
2023-05-10T11:51:09.130Z,101288.88
2023-05-10T11:53:36.005Z,101290.83
2023-05-10T11:56:10.232Z,101289.56
2023-05-10T11:58:38.034Z,101289.83
2023-05-10T12:01:06.497Z,101287.52
2023-05-10T12:03:33.529Z,101284.34
2023-05-10T12:06:01.700Z,101287.30
2023-05-10T12:08:29.444Z,101283.49
2023-05-10T12:11:07.077Z,101285.64
2023-05-10T12:13:33.912Z,101284.47
2023-05-10T12:16:01.675Z,101282.67
2023-05-10T12:18:28.896Z,101276.59
2023-05-10T12:20:55.853Z,101280.69
2023-05-10T12:23:22.724Z,101281.73
2023-05-10T12:25:49.751Z,101282.85
2023-05-10T12:28:16.544Z,101286.30
2023-05-10T12:30:43.437Z,101284.11
2023-05-10T12:33:12.091Z,101284.53
2023-05-10T12:35:53.013Z,101280.87
2023-05-10T12:38:36.989Z,101281.39
2023-05-10T12:41:05.346Z,101285.66
2023-05-10T12:43:32.611Z,101286.06
2023-05-10T12:45:59.671Z,101288.11
2023-05-10T12:48:26.797Z,101288.33
2023-05-10T12:50:53.651Z,101286.04
2023-05-10T12:53:20.853Z,101284.54
2023-05-10T12:55:47.719Z,101286.00
2023-05-10T12:58:31.408Z,101283.61
2023-05-10T13:01:01.822Z,101280.40
2023-05-10T13:03:28.826Z,101283.42
2023-05-10T13:05:55.650Z,101283.07
2023-05-10T13:08:22.587Z,101281.92
2023-05-10T13:10:49.687Z,101276.45
2023-05-10T13:13:16.572Z,101276.83
2023-05-10T13:15:43.567Z,101279.85
2023-05-10T13:18:10.657Z,101277.84
2023-05-10T13:20:37.768Z,101271.10
2023-05-10T13:23:04.821Z,101270.58
2023-05-10T13:25:31.950Z,101271.55
2023-05-10T13:27:58.802Z,101271.77
2023-05-10T13:30:25.677Z,101269.48
2023-05-10T13:32:52.543Z,101270.13
2023-05-10T13:35:19.424Z,101270.86
2023-05-10T13:37:46.437Z,101270.07
2023-05-10T13:40:13.461Z,101266.77
2023-05-10T13:42:40.791Z,101267.47
2023-05-10T13:45:08.271Z,101265.70
2023-05-10T13:47:35.205Z,101263.23
2023-05-10T13:50:02.226Z,101265.98
2023-05-10T13:52:29.175Z,101262.02
2023-05-10T13:54:56.327Z,101261.43
2023-05-10T13:57:24.181Z,101253.17
2023-05-10T13:59:51.460Z,101252.73
2023-05-10T14:02:18.425Z,101251.00
2023-05-10T14:04:45.289Z,101248.20
2023-05-10T14:07:12.221Z,101244.30
2023-05-10T14:09:39.231Z,101241.81
2023-05-10T14:12:06.414Z,101243.36
2023-05-10T14:14:33.330Z,101242.68
2023-05-10T14:17:00.755Z,101241.73
2023-05-10T14:19:28.348Z,101241.77
2023-05-10T14:21:55.226Z,101242.41
2023-05-10T14:24:22.102Z,101245.77
2023-05-10T14:26:49.093Z,101243.84
2023-05-10T14:29:16.124Z,101245.14
2023-05-10T14:31:43.070Z,101246.02
2023-05-10T14:34:10.033Z,101241.29
2023-05-10T14:36:36.878Z,101241.89
2023-05-10T14:39:04.041Z,101239.24
2023-05-10T14:41:31.472Z,101234.44
2023-05-10T14:43:58.469Z,101235.51
2023-05-10T14:46:25.378Z,101236.11
2023-05-10T14:48:52.305Z,101233.01
2023-05-10T14:51:22.839Z,101235.84
2023-05-10T14:53:50.567Z,101235.23
2023-05-10T14:56:17.446Z,101236.39
2023-05-10T14:58:44.342Z,101230.00
2023-05-10T15:01:12.224Z,101229.81
2023-05-10T15:03:39.858Z,101225.70
2023-05-10T15:06:09.870Z,101222.23
2023-05-10T15:08:36.735Z,101221.59
2023-05-10T15:11:04.102Z,101221.73
2023-05-10T15:13:30.950Z,101221.08
2023-05-10T15:15:57.912Z,101220.41
2023-05-10T15:18:25.001Z,101223.20
2023-05-10T15:20:51.901Z,101223.61
2023-05-10T15:23:18.754Z,101223.23
2023-05-10T15:25:45.801Z,101220.73
2023-05-10T15:28:12.754Z,101218.00
2023-05-10T15:30:39.806Z,101220.88
2023-05-10T15:33:06.739Z,101220.73
2023-05-10T15:35:34.484Z,101220.54
2023-05-10T15:38:01.310Z,101221.77
2023-05-10T15:40:28.199Z,101223.05
2023-05-10T15:42:55.236Z,101220.77
2023-05-10T15:45:22.085Z,101215.72
2023-05-10T15:47:49.229Z,101213.15
2023-05-10T15:50:16.977Z,101214.63
2023-05-10T15:52:43.852Z,101213.41
2023-05-10T15:55:13.612Z,101212.32
2023-05-10T15:57:41.547Z,101217.34
2023-05-10T16:00:09.585Z,101218.08
2023-05-10T16:02:42.527Z,101216.15
2023-05-10T16:05:10.001Z,101222.52
2023-05-10T16:07:37.006Z,101223.69
2023-05-10T16:10:06.811Z,101222.48
2023-05-10T16:12:33.665Z,101219.60
2023-05-10T16:15:00.601Z,101224.58
2023-05-10T16:17:27.669Z,101222.70
2023-05-10T16:19:54.683Z,101223.20
2023-05-10T16:22:22.558Z,101227.98
2023-05-10T16:24:53.685Z,101223.92
2023-05-10T16:27:20.749Z,101226.63
2023-05-10T16:29:48.310Z,101229.40
2023-05-10T16:32:15.268Z,101233.05
2023-05-10T16:34:42.105Z,101235.66
2023-05-10T16:37:09.145Z,101236.67
2023-05-10T16:39:36.074Z,101232.36
2023-05-10T16:42:03.032Z,101231.83
2023-05-10T16:44:29.982Z,101231.45
2023-05-10T16:46:56.830Z,101231.40
2023-05-10T16:49:26.221Z,101233.14
2023-05-10T16:51:53.514Z,101236.11
2023-05-10T16:54:22.119Z,101237.39
2023-05-10T16:56:49.110Z,101233.83
2023-05-10T16:59:16.511Z,101232.91
2023-05-10T17:01:43.878Z,101236.02
2023-05-10T17:04:10.906Z,101240.98
2023-05-10T17:06:37.875Z,101241.85
2023-05-10T17:09:05.792Z,101243.47
2023-05-10T17:11:33.081Z,101249.34
2023-05-10T17:14:01.544Z,101247.39
2023-05-10T17:16:29.868Z,101249.18
2023-05-10T17:18:56.940Z,101251.73
2023-05-10T17:21:24.012Z,101255.83
2023-05-10T17:23:50.995Z,101254.42
2023-05-10T17:26:17.900Z,101256.16
2023-05-10T17:28:44.840Z,101257.41
2023-05-10T17:31:12.277Z,101258.84
2023-05-10T17:33:39.412Z,101258.32
2023-05-10T17:36:06.944Z,101257.45
2023-05-10T17:38:33.948Z,101257.25
2023-05-10T17:41:00.915Z,101257.20
2023-05-10T17:43:27.749Z,101261.38
2023-05-10T17:45:54.719Z,101264.70
2023-05-10T17:48:22.158Z,101266.98
2023-05-10T17:50:52.114Z,101267.73
2023-05-10T17:53:19.501Z,101269.10
2023-05-10T17:55:47.124Z,101273.45
2023-05-10T17:58:13.998Z,101276.88
2023-05-10T18:00:41.062Z,101278.52
2023-05-10T18:03:08.198Z,101281.30
2023-05-10T18:05:38.768Z,101280.33
2023-05-10T18:08:06.206Z,101281.98
2023-05-10T18:10:33.762Z,101287.06
2023-05-10T18:13:02.537Z,101291.12
2023-05-10T18:15:29.722Z,101291.34
2023-05-10T18:17:56.960Z,101294.58
2023-05-10T18:20:24.113Z,101295.05
2023-05-10T18:22:51.263Z,101298.48
2023-05-10T18:25:18.395Z,101302.38
2023-05-10T18:27:45.779Z,101301.13
2023-05-10T18:30:13.587Z,101300.91
2023-05-10T18:32:40.866Z,101307.11
2023-05-10T18:35:08.277Z,101306.42
2023-05-10T18:37:35.694Z,101306.45
2023-05-10T18:40:02.960Z,101308.42
2023-05-10T18:42:29.839Z,101309.89
2023-05-10T18:44:56.846Z,101307.08
2023-05-10T18:47:24.047Z,101310.25
2023-05-10T18:49:51.038Z,101312.23
2023-05-10T18:52:18.094Z,101314.31
2023-05-10T18:54:45.115Z,101313.96
2023-05-10T18:57:12.652Z,101313.47
2023-05-10T18:59:40.054Z,101312.63
2023-05-10T19:02:07.031Z,101313.63
2023-05-10T19:04:34.101Z,101313.54
2023-05-10T19:07:02.152Z,101311.48
2023-05-10T19:09:29.165Z,101315.51
2023-05-10T19:11:56.725Z,101314.67
2023-05-10T19:14:25.345Z,101315.56
2023-05-10T19:16:54.253Z,101315.98
2023-05-10T19:19:21.507Z,101320.92
2023-05-10T19:21:49.638Z,101319.71
2023-05-10T19:24:17.087Z,101320.59
2023-05-10T19:26:44.629Z,101318.84
2023-05-10T19:29:12.844Z,101323.16
2023-05-10T19:31:40.231Z,101326.27
2023-05-10T19:34:07.244Z,101323.23
2023-05-10T19:36:34.273Z,101321.68
2023-05-10T19:39:01.313Z,101323.65
2023-05-10T19:41:28.788Z,101322.78
2023-05-10T19:43:56.244Z,101322.01
2023-05-10T19:46:23.263Z,101323.45
2023-05-10T19:48:52.093Z,101322.59
2023-05-10T19:51:18.932Z,101325.52
2023-05-10T19:53:46.073Z,101326.14
2023-05-10T19:56:13.135Z,101328.16
2023-05-10T19:58:40.286Z,101326.46
2023-05-10T20:01:08.109Z,101326.38
2023-05-10T20:03:35.682Z,101327.60
2023-05-10T20:06:02.951Z,101327.77
2023-05-10T20:08:29.998Z,101328.58
2023-05-10T20:11:02.589Z,101327.86
2023-05-10T20:13:30.145Z,101327.73
2023-05-10T20:15:57.785Z,101328.56
2023-05-10T20:18:24.656Z,101330.65
2023-05-10T20:20:55.563Z,101327.80
2023-05-10T20:23:22.578Z,101327.83
2023-05-10T20:25:49.617Z,101326.13
2023-05-10T20:28:21.533Z,101328.23
2023-05-10T20:30:49.436Z,101330.52
2023-05-10T20:33:17.162Z,101333.69
2023-05-10T20:35:44.424Z,101335.89
2023-05-10T20:38:11.358Z,101334.40
2023-05-10T20:40:38.205Z,101336.94
2023-05-10T20:43:06.364Z,101336.85
2023-05-10T20:45:33.325Z,101334.00
2023-05-10T20:48:00.449Z,101331.55
2023-05-10T20:50:27.519Z,101333.52
2023-05-10T20:52:54.409Z,101329.68
2023-05-10T20:55:21.313Z,101330.34
2023-05-10T20:57:48.357Z,101332.04
2023-05-10T21:00:15.966Z,101331.58
2023-05-10T21:02:44.963Z,101331.80
2023-05-10T21:05:11.987Z,101331.45
2023-05-10T21:07:39.486Z,101335.95
2023-05-10T21:10:08.219Z,101336.21
2023-05-10T21:12:35.174Z,101335.31
2023-05-10T21:15:03.198Z,101336.35
2023-05-10T21:18:18.465Z,101340.16
2023-05-10T21:20:45.348Z,101336.92
2023-05-10T21:23:12.213Z,101339.46
2023-05-10T21:25:39.053Z,101334.98
2023-05-10T21:28:05.953Z,101334.17
2023-05-10T21:30:33.683Z,101333.30
2023-05-10T21:33:01.908Z,101337.94
2023-05-10T21:35:29.993Z,101340.18
2023-05-10T21:37:57.427Z,101338.74
2023-05-10T21:40:24.342Z,101339.92
2023-05-10T21:42:51.182Z,101343.17
2023-05-10T21:45:19.450Z,101344.28
2023-05-10T21:47:46.308Z,101343.54
2023-05-10T21:50:13.312Z,101339.62
2023-05-10T21:52:40.088Z,101342.83
2023-05-10T21:55:08.899Z,101342.50
2023-05-10T21:57:36.600Z,101340.24
2023-05-10T22:00:03.857Z,101341.92
2023-05-10T22:02:31.465Z,101338.52
2023-05-10T22:04:58.681Z,101338.35
2023-05-10T22:07:25.712Z,101339.44
2023-05-10T22:09:52.673Z,101339.48
2023-05-10T22:12:19.719Z,101343.83
2023-05-10T22:14:49.993Z,101344.91
2023-05-10T22:17:19.048Z,101345.11
2023-05-10T22:19:45.976Z,101348.47
2023-05-10T22:22:12.912Z,101344.08
2023-05-10T22:24:39.865Z,101345.20
2023-05-10T22:27:06.806Z,101343.00
2023-05-10T22:29:33.754Z,101345.39
2023-05-10T22:32:05.813Z,101349.60
2023-05-10T22:34:33.536Z,101348.77
2023-05-10T22:37:00.430Z,101347.25
2023-05-10T22:39:27.465Z,101348.83
2023-05-10T22:41:54.331Z,101352.14
2023-05-10T22:44:21.132Z,101353.60
2023-05-10T22:46:48.135Z,101353.70
2023-05-10T22:49:15.036Z,101353.42
2023-05-10T22:51:42.206Z,101348.69
2023-05-10T22:54:09.084Z,101346.70
2023-05-10T22:56:36.097Z,101344.98
2023-05-10T22:59:03.048Z,101345.29
2023-05-10T23:01:29.968Z,101345.80
2023-05-10T23:03:56.837Z,101344.65
2023-05-10T23:06:23.683Z,101345.97
2023-05-10T23:08:50.546Z,101346.65
2023-05-10T23:11:17.413Z,101347.49
2023-05-10T23:13:44.693Z,101351.13
2023-05-10T23:16:11.726Z,101350.12
2023-05-10T23:18:39.653Z,101350.20
2023-05-10T23:21:06.883Z,101351.27
2023-05-10T23:23:34.679Z,101352.77
2023-05-10T23:26:01.981Z,101355.64
2023-05-10T23:28:28.851Z,101357.46
2023-05-10T23:30:57.110Z,101355.29
2023-05-10T23:33:24.273Z,101358.79
2023-05-10T23:35:51.321Z,101357.98
2023-05-10T23:38:18.112Z,101363.12
2023-05-10T23:40:48.727Z,101361.70
2023-05-10T23:43:16.359Z,101361.95
2023-05-10T23:45:43.629Z,101362.48
2023-05-10T23:48:11.121Z,101361.83
2023-05-10T23:50:37.934Z,101365.68
2023-05-10T23:53:04.860Z,101366.55
2023-05-10T23:55:31.911Z,101370.29
2023-05-10T23:57:58.763Z,101370.86
